Time;durP1;ratioP1;P1;durP2;ratioP2;P2;SDS_P1;SDS_P2;PMS_P1;PMS_P2;Temp;Humidity;BMP_temperature;BMP_pressure;BME280_temperature;BME280_humidity;BME280_pressure;Samples;Min_cycle;Max_cycle;Signal;HPM_P1;HPM_P2
2021/12/07 00:02:08;;;;;;;25.27;17.33;;;5.80;62.60;;;;;;5073711;28;20028;-62
2021/12/07 00:04:35;;;;;;;27.80;17.20;;;5.80;62.60;;;;;;5073685;28;20025;-62
2021/12/07 00:07:02;;;;;;;26.50;17.38;;;5.70;62.40;;;;;;5073341;28;20298;-61
2021/12/07 00:09:28;;;;;;;24.10;15.98;;;5.80;62.70;;;;;;5071841;28;20063;-60
2021/12/07 00:11:54;;;;;;;24.27;16.75;;;5.90;62.30;;;;;;5072982;28;20052;-60
2021/12/07 00:14:24;;;;;;;26.50;17.35;;;5.70;61.60;;;;;;5072126;28;20480;-64
2021/12/07 00:16:52;;;;;;;24.23;16.38;;;5.70;62.00;;;;;;5072277;28;20041;-61
2021/12/07 00:19:19;;;;;;;25.23;17.05;;;5.80;61.90;;;;;;5073896;28;20020;-62
2021/12/07 00:21:46;;;;;;;27.45;17.23;;;5.80;61.90;;;;;;5073078;28;20016;-64
2021/12/07 00:24:13;;;;;;;25.90;16.52;;;5.80;61.50;;;;;;5071548;28;20145;-64
2021/12/07 00:26:41;;;;;;;24.20;16.15;;;5.80;61.40;;;;;;5070445;28;20028;-61
2021/12/07 00:29:08;;;;;;;24.05;16.23;;;5.80;61.50;;;;;;5047306;28;20060;-63
2021/12/07 00:31:42;;;;;;;25.20;17.17;;;5.80;61.60;;;;;;5046991;28;20036;-62
2021/12/07 00:36:44;;;;;;;23.83;16.25;;;5.70;61.00;;;;;;5049916;28;20079;-63
2021/12/07 00:39:10;;;;;;;24.88;16.67;;;5.70;61.20;;;;;;5051623;28;20029;-60
2021/12/07 00:41:36;;;;;;;22.77;16.25;;;5.70;61.10;;;;;;5052305;28;20025;-61
2021/12/07 00:44:04;;;;;;;24.95;15.73;;;5.70;61.10;;;;;;5036304;28;20025;-58
2021/12/07 00:46:31;;;;;;;25.25;16.95;;;5.70;61.10;;;;;;5029869;28;20128;-62
2021/12/07 00:48:58;;;;;;;24.20;16.25;;;5.50;61.30;;;;;;5031901;28;20480;-59
2021/12/07 00:51:24;;;;;;;24.42;16.63;;;5.50;61.50;;;;;;5051040;28;20179;-63
2021/12/07 00:53:50;;;;;;;25.13;17.00;;;5.60;61.70;;;;;;5047970;28;20118;-63
2021/12/07 00:56:16;;;;;;;24.42;16.48;;;5.70;61.70;;;;;;5050469;28;20033;-62
2021/12/07 00:58:42;;;;;;;27.40;17.48;;;5.70;61.10;;;;;;5051289;28;20028;-62
2021/12/07 01:01:11;;;;;;;24.15;16.77;;;5.80;61.10;;;;;;5052386;28;20249;-64
2021/12/07 01:03:38;;;;;;;24.63;17.13;;;5.80;60.90;;;;;;5052555;28;20021;-68
2021/12/07 01:06:22;;;;;;;24.42;16.50;;;5.80;61.10;;;;;;5035226;28;20021;-60
2021/12/07 01:25:16;;;;;;;27.75;18.42;;;5.80;60.80;;;;;;5053300;28;20055;-62
2021/12/07 01:27:43;;;;;;;26.80;18.38;;;5.80;60.90;;;;;;5052926;28;20127;-64
2021/12/07 01:30:16;;;;;;;29.00;18.88;;;5.80;60.80;;;;;;5053239;28;20516;-67
2021/12/07 01:41:31;;;;;;;28.42;17.83;;;5.60;61.40;;;;;;5052976;28;20121;-64
2021/12/07 01:43:57;;;;;;;26.98;17.90;;;5.70;61.30;;;;;;5045469;28;20040;-62
2021/12/07 02:00:00;;;;;;;29.73;18.75;;;5.70;61.30;;;;;;5052807;28;20028;-63
2021/12/07 02:02:29;;;;;;;28.08;17.98;;;5.70;61.40;;;;;;5053240;28;20025;-64
2021/12/07 02:04:56;;;;;;;30.02;19.73;;;5.70;61.20;;;;;;5052950;28;20151;-63
2021/12/07 02:07:23;;;;;;;30.05;18.23;;;5.80;61.10;;;;;;5052752;28;20036;-62
2021/12/07 02:09:54;;;;;;;27.75;18.30;;;5.70;61.00;;;;;;5035180;28;20025;-62
2021/12/07 02:12:21;;;;;;;26.05;17.13;;;5.70;61.20;;;;;;5053077;28;20100;-64
2021/12/07 02:14:47;;;;;;;26.08;17.25;;;5.70;61.30;;;;;;5052732;28;20021;-62
2021/12/07 02:17:21;;;;;;;27.98;17.95;;;5.70;61.30;;;;;;5053240;28;20033;-63
2021/12/07 02:19:47;;;;;;;29.52;19.00;;;5.70;61.20;;;;;;5052435;28;20079;-61
2021/12/07 02:22:13;;;;;;;27.92;18.38;;;5.70;61.50;;;;;;5053114;28;20032;-63
2021/12/07 02:24:40;;;;;;;28.55;18.58;;;5.60;61.50;;;;;;5053102;28;20020;-63
2021/12/07 02:27:06;;;;;;;28.70;18.95;;;5.40;61.90;;;;;;5042731;28;20041;-62
2021/12/07 02:29:32;;;;;;;29.27;18.77;;;5.40;62.70;;;;;;5073319;28;20024;-66
2021/12/07 02:31:59;;;;;;;30.05;19.92;;;5.30;62.30;;;;;;5072156;28;20471;-66
2021/12/07 02:34:25;;;;;;;29.23;19.33;;;5.40;62.30;;;;;;5072954;28;20017;-67
2021/12/07 02:36:52;;;;;;;31.98;19.90;;;5.40;62.40;;;;;;5072256;28;20060;-65
2021/12/07 02:39:27;;;;;;;29.17;19.92;;;5.50;62.40;;;;;;5072868;28;20446;-63
2021/12/07 02:41:52;;;;;;;31.65;20.40;;;5.60;62.30;;;;;;5072077;28;20016;-62
2021/12/07 02:44:18;;;;;;;32.38;19.42;;;5.70;61.90;;;;;;5071623;28;20380;-66
2021/12/07 02:46:44;;;;;;;30.85;19.90;;;5.60;61.50;;;;;;5070917;28;20028;-63
2021/12/07 02:49:10;;;;;;;28.48;19.35;;;5.60;61.60;;;;;;5072592;28;20044;-72
2021/12/07 02:51:36;;;;;;;29.55;19.92;;;5.60;61.60;;;;;;5072525;28;20062;-68
2021/12/07 02:54:02;;;;;;;29.10;18.90;;;5.70;61.90;;;;;;5071959;28;20025;-70
2021/12/07 02:56:28;;;;;;;28.83;19.10;;;5.70;61.60;;;;;;5071387;28;20028;-70
2021/12/07 02:59:01;;;;;;;35.42;20.10;;;5.70;61.50;;;;;;5071909;28;20047;-65
2021/12/07 03:01:31;;;;;;;29.23;19.30;;;5.80;62.20;;;;;;5071527;28;20453;-71
2021/12/07 03:04:04;;;;;;;28.85;20.00;;;5.60;61.60;;;;;;5071854;28;20039;-71
2021/12/07 03:06:49;;;;;;;30.10;19.42;;;5.50;61.80;;;;;;5072371;28;20116;-69
2021/12/07 03:28:10;;;;;;;31.02;20.50;;;5.60;61.80;;;;;;5061790;28;20052;-69
2021/12/07 03:30:37;;;;;;;32.92;19.92;;;5.60;61.70;;;;;;5056910;28;20109;-71
2021/12/07 03:33:04;;;;;;;31.58;19.90;;;5.60;61.70;;;;;;5055941;28;20179;-71
2021/12/07 03:35:30;;;;;;;30.83;20.42;;;5.60;61.50;;;;;;5056328;28;20036;-70
2021/12/07 03:37:56;;;;;;;32.63;20.88;;;5.70;61.70;;;;;;5055537;28;20024;-68
2021/12/07 03:40:23;;;;;;;32.88;20.77;;;5.60;61.70;;;;;;5055953;28;20029;-70
2021/12/07 03:43:08;;;;;;;48.53;21.83;;;5.70;62.20;;;;;;5055505;28;20028;-72
2021/12/07 03:45:34;;;;;;;30.77;20.20;;;5.70;61.50;;;;;;5038456;28;20366;-68
2021/12/07 03:48:03;;;;;;;31.70;19.80;;;5.70;61.30;;;;;;5055396;28;20021;-69
2021/12/07 03:50:29;;;;;;;30.70;19.60;;;5.70;61.50;;;;;;5055857;28;20025;-69
2021/12/07 03:52:55;;;;;;;31.10;19.73;;;5.70;61.30;;;;;;5055509;28;20017;-73
2021/12/07 03:55:21;;;;;;;30.05;19.60;;;5.70;61.30;;;;;;5055879;28;20468;-69
2021/12/07 03:57:48;;;;;;;30.67;19.60;;;5.80;61.30;;;;;;5055202;28;20118;-65
2021/12/07 04:00:18;;;;;;;31.27;20.48;;;5.70;61.20;;;;;;5055574;28;20032;-68
2021/12/07 04:02:45;;;;;;;31.65;19.88;;;5.70;61.10;;;;;;5055559;28;20027;-73
2021/12/07 04:05:15;;;;;;;30.08;19.75;;;5.60;61.20;;;;;;5037318;28;20032;-70
2021/12/07 04:07:42;;;;;;;30.50;19.88;;;5.50;61.60;;;;;;5056135;28;20025;-71
2021/12/07 04:10:09;;;;;;;30.73;20.50;;;5.60;61.90;;;;;;5055248;28;20021;-68
2021/12/07 04:12:36;;;;;;;31.05;20.45;;;5.60;61.80;;;;;;5037770;28;20017;-69
2021/12/07 04:15:21;;;;;;;29.25;19.48;;;5.60;62.30;;;;;;5055134;28;20061;-70
2021/12/07 04:17:48;;;;;;;34.47;19.98;;;5.60;61.70;;;;;;5037408;28;20037;-66
2021/12/07 04:20:16;;;;;;;32.85;20.90;;;5.70;61.70;;;;;;5055402;28;20100;-67
2021/12/07 04:22:42;;;;;;;32.85;20.45;;;5.70;61.70;;;;;;5055131;28;20021;-66
2021/12/07 04:25:10;;;;;;;32.58;20.40;;;5.70;61.70;;;;;;5054912;28;20029;-65
2021/12/07 04:27:38;;;;;;;31.08;20.35;;;5.60;61.50;;;;;;5053405;28;20091;-68
2021/12/07 04:30:14;;;;;;;32.13;20.70;;;5.60;61.50;;;;;;5074621;28;20016;-67
2021/12/07 04:32:41;;;;;;;33.30;20.30;;;5.60;61.50;;;;;;5073879;28;20047;-68
2021/12/07 04:35:08;;;;;;;36.15;22.48;;;5.60;61.90;;;;;;5073459;28;20025;-66
2021/12/07 04:37:34;;;;;;;32.33;21.13;;;5.60;61.90;;;;;;5057393;28;20021;-70
2021/12/07 04:40:00;;;;;;;33.67;20.55;;;5.70;61.90;;;;;;5073387;28;20365;-70
2021/12/07 04:42:26;;;;;;;33.22;21.42;;;5.60;61.60;;;;;;5074893;28;20036;-72
2021/12/07 04:44:57;;;;;;;37.72;23.50;;;5.60;61.80;;;;;;5074362;28;20016;-73
2021/12/07 04:47:39;;;;;;;35.42;22.10;;;5.50;62.00;;;;;;5075068;28;20024;-74
2021/12/07 04:58:14;;;;;;;35.05;22.25;;;5.60;62.10;;;;;;5074353;28;20040;-69
2021/12/07 05:00:40;;;;;;;38.22;23.48;;;5.60;62.20;;;;;;5074519;28;20025;-71
2021/12/07 05:03:11;;;;;;;37.10;23.10;;;5.50;62.30;;;;;;5073967;28;20147;-69
2021/12/07 05:05:43;;;;;;;34.60;21.92;;;5.40;62.40;;;;;;5073447;28;20023;-70
2021/12/07 05:08:12;;;;;;;37.83;23.63;;;5.40;62.80;;;;;;5073081;28;20077;-72
2021/12/07 05:24:05;;;;;;;37.72;23.88;;;5.40;63.30;;;;;;5074435;28;20031;-65
2021/12/07 05:37:59;;;;;;;37.63;24.73;;;5.30;63.50;;;;;;5053966;28;20033;-62
2021/12/07 05:40:32;;;;;;;46.90;25.38;;;5.20;63.30;;;;;;5054029;28;20032;-63
2021/12/07 05:42:59;;;;;;;38.83;23.42;;;5.20;63.80;;;;;;5052697;28;20042;-63
2021/12/07 05:45:32;;;;;;;37.55;24.27;;;5.30;63.80;;;;;;5053992;28;20016;-68
2021/12/07 05:47:59;;;;;;;42.72;24.25;;;5.40;63.50;;;;;;5053735;28;20021;-70
2021/12/07 05:50:27;;;;;;;36.28;23.27;;;5.40;63.50;;;;;;5036180;28;20039;-72
2021/12/07 05:52:53;;;;;;;39.17;24.55;;;5.40;63.30;;;;;;5035821;28;20025;-64
2021/12/07 05:55:20;;;;;;;42.78;25.08;;;5.40;63.20;;;;;;5053545;28;20031;-71
2021/12/07 05:58:08;;;;;;;41.53;25.27;;;5.40;63.40;;;;;;5053481;28;20033;-69
2021/12/07 06:00:35;;;;;;;41.58;24.67;;;5.40;63.50;;;;;;5035709;28;20025;-68
2021/12/07 06:03:04;;;;;;;39.03;23.83;;;5.30;63.60;;;;;;5019069;28;20025;-73
2021/12/07 06:05:32;;;;;;;39.72;23.70;;;5.40;63.70;;;;;;5053200;28;20031;-76
2021/12/07 06:07:58;;;;;;;35.55;22.58;;;5.40;63.20;;;;;;5034808;28;20041;-67
2021/12/07 06:10:25;;;;;;;37.42;24.45;;;5.40;63.20;;;;;;5053078;28;20068;-62
2021/12/07 06:12:51;;;;;;;40.95;24.20;;;5.50;63.20;;;;;;5053299;28;20055;-61
2021/12/07 06:15:20;;;;;;;38.97;25.13;;;5.50;63.00;;;;;;5052178;28;20025;-69
2021/12/07 06:17:46;;;;;;;39.22;24.15;;;5.40;63.00;;;;;;5054445;28;20025;-70
2021/12/07 06:20:12;;;;;;;35.20;22.63;;;5.40;63.20;;;;;;5053480;28;20021;-70
2021/12/07 06:22:38;;;;;;;35.13;20.75;;;5.40;63.00;;;;;;5053048;28;20021;-66
2021/12/07 06:25:05;;;;;;;37.50;22.13;;;5.50;63.00;;;;;;5052675;28;20024;-70
2021/12/07 06:27:34;;;;;;;40.28;22.55;;;5.50;62.70;;;;;;5052788;28;20041;-74
2021/12/07 06:30:00;;;;;;;35.80;21.45;;;5.50;62.60;;;;;;5052415;28;20021;-71
2021/12/07 06:32:26;;;;;;;38.45;22.08;;;5.50;62.70;;;;;;5035045;28;20067;-72
2021/12/07 06:34:53;;;;;;;37.85;23.42;;;5.50;62.70;;;;;;5035117;28;20071;-72
2021/12/07 06:37:19;;;;;;;41.00;22.90;;;5.50;62.70;;;;;;5034437;28;20225;-70
2021/12/07 06:39:45;;;;;;;52.05;25.98;;;5.40;62.50;;;;;;5034912;28;20027;-66
2021/12/07 06:42:11;;;;;;;47.22;23.85;;;5.40;63.10;;;;;;5052288;28;20028;-67
2021/12/07 06:44:57;;;;;;;39.90;23.63;;;5.40;63.40;;;;;;5034960;28;20032;-68
2021/12/07 06:47:22;;;;;;;40.35;23.35;;;5.40;63.20;;;;;;5034316;28;20036;-74
2021/12/07 06:49:49;;;;;;;42.50;25.25;;;5.40;63.30;;;;;;5034906;28;20060;-70
2021/12/07 06:52:15;;;;;;;40.70;24.33;;;5.50;63.10;;;;;;5034258;28;20021;-67
2021/12/07 06:54:41;;;;;;;35.10;21.85;;;5.50;63.00;;;;;;5034737;28;20033;-70
2021/12/07 06:57:07;;;;;;;41.17;24.60;;;5.50;63.00;;;;;;5052108;28;20092;-60
2021/12/07 06:59:32;;;;;;;33.28;21.70;;;5.50;63.10;;;;;;5052063;28;20377;-65
2021/12/07 07:01:58;;;;;;;35.15;21.48;;;5.50;62.90;;;;;;5034678;28;20021;-74
2021/12/07 07:04:24;;;;;;;38.92;23.05;;;5.60;62.80;;;;;;5052127;28;20024;-69
2021/12/07 07:06:51;;;;;;;36.67;23.27;;;5.70;62.60;;;;;;5052872;28;20025;-74
2021/12/07 07:09:17;;;;;;;42.47;24.13;;;5.80;62.40;;;;;;5034526;28;20051;-70
2021/12/07 07:11:43;;;;;;;40.85;24.10;;;5.90;62.20;;;;;;5034773;28;20059;-67
2021/12/07 07:14:09;;;;;;;47.92;24.05;;;5.90;61.90;;;;;;5052078;28;20377;-69
2021/12/07 07:16:36;;;;;;;37.55;22.92;;;5.80;61.90;;;;;;5052535;28;20381;-73
2021/12/07 07:19:02;;;;;;;48.70;23.88;;;5.90;61.90;;;;;;5052392;28;20042;-76
2021/12/07 07:21:28;;;;;;;40.38;24.08;;;5.80;62.30;;;;;;5051225;28;20102;-69
2021/12/07 07:23:54;;;;;;;42.20;23.27;;;5.80;61.70;;;;;;5033389;28;20076;-73
2021/12/07 07:26:20;;;;;;;40.25;25.90;;;5.70;61.90;;;;;;5050000;28;20029;-66
2021/12/07 07:28:46;;;;;;;48.65;27.65;;;5.70;62.70;;;;;;5067554;28;20138;-65
2021/12/07 07:31:16;;;;;;;51.92;30.88;;;6.70;62.40;;;;;;5069174;28;20568;-77
2021/12/07 07:33:42;;;;;;;43.08;28.38;;;7.50;59.10;;;;;;5070144;28;20475;-70
2021/12/07 07:36:08;;;;;;;43.33;24.27;;;7.60;57.40;;;;;;5069869;28;20067;-70
2021/12/07 07:38:34;;;;;;;43.80;26.27;;;7.50;57.80;;;;;;5071764;28;20024;-74
2021/12/07 07:41:00;;;;;;;45.28;25.30;;;7.30;57.70;;;;;;5070192;28;20036;-70
2021/12/07 07:43:26;;;;;;;41.17;25.73;;;7.20;58.50;;;;;;5069907;28;20097;-67
2021/12/07 07:45:53;;;;;;;40.08;25.30;;;7.10;58.70;;;;;;5071330;28;20384;-69
2021/12/07 07:48:21;;;;;;;43.15;25.75;;;6.90;58.70;;;;;;5069012;28;20432;-74
2021/12/07 07:50:48;;;;;;;43.90;26.13;;;6.80;58.60;;;;;;5070774;28;20021;-74
2021/12/07 07:53:14;;;;;;;40.28;27.42;;;6.80;59.00;;;;;;5069570;28;20078;-72
2021/12/07 07:55:42;;;;;;;42.97;26.35;;;6.70;58.90;;;;;;5071121;28;20033;-72
2021/12/07 07:58:08;;;;;;;44.38;27.27;;;6.60;59.40;;;;;;5071276;28;20033;-71
2021/12/07 08:00:35;;;;;;;39.45;24.05;;;6.50;59.30;;;;;;5070583;28;20027;-73
2021/12/07 08:03:00;;;;;;;49.38;26.67;;;6.40;59.80;;;;;;5071442;28;20029;-69
2021/12/07 08:05:26;;;;;;;45.83;28.08;;;6.30;59.90;;;;;;5069247;28;20119;-68
2021/12/07 08:07:52;;;;;;;43.03;25.40;;;6.30;59.90;;;;;;5057527;28;20119;-71
2021/12/07 08:10:22;;;;;;;43.28;26.00;;;6.20;60.40;;;;;;5075986;28;20029;-71
2021/12/07 08:12:49;;;;;;;41.92;26.58;;;6.20;60.70;;;;;;5074988;28;20017;-70
2021/12/07 08:15:17;;;;;;;46.53;26.15;;;6.20;60.90;;;;;;5071510;28;20027;-64
2021/12/07 08:17:44;;;;;;;43.63;26.38;;;6.10;60.40;;;;;;5072610;28;20103;-66
2021/12/07 08:20:10;;;;;;;40.60;25.85;;;6.00;60.80;;;;;;5071638;28;20028;-67
2021/12/07 08:22:35;;;;;;;46.22;26.17;;;5.90;61.10;;;;;;5073898;28;20458;-63
2021/12/07 08:25:20;;;;;;;45.92;25.33;;;5.90;61.70;;;;;;5072699;28;20119;-66
2021/12/07 08:27:49;;;;;;;37.53;24.63;;;6.00;61.60;;;;;;5070700;28;20044;-69
2021/12/07 08:30:16;;;;;;;61.30;34.00;;;6.10;61.50;;;;;;5071819;28;20116;-72
2021/12/07 08:32:46;;;;;;;46.35;26.50;;;6.30;61.30;;;;;;5072911;28;20032;-73
2021/12/07 08:35:17;;;;;;;48.80;26.85;;;6.50;61.00;;;;;;5073483;28;20099;-63
2021/12/07 08:37:46;;;;;;;42.65;24.33;;;6.50;60.20;;;;;;5070449;28;20499;-64
2021/12/07 08:40:15;;;;;;;41.78;25.17;;;6.50;60.00;;;;;;5070029;28;20039;-63
2021/12/07 08:42:41;;;;;;;43.33;25.13;;;6.40;60.00;;;;;;5053937;28;20025;-70
2021/12/07 08:45:08;;;;;;;37.90;24.27;;;6.40;60.20;;;;;;5073708;28;20055;-69
2021/12/07 08:47:35;;;;;;;39.55;25.63;;;6.60;60.40;;;;;;5072642;28;20107;-63
2021/12/07 08:50:03;;;;;;;36.67;22.98;;;6.70;60.20;;;;;;5070648;28;20032;-75
2021/12/07 08:52:29;;;;;;;39.53;23.65;;;6.90;59.30;;;;;;5072685;28;20020;-67
2021/12/07 09:00:17;;;;;;;38.40;22.80;;;7.20;58.00;;;;;;5072395;28;20081;-68
2021/12/07 09:03:03;;;;;;;46.88;23.95;;;7.40;57.90;;;;;;5068289;28;20024;-68
2021/12/07 09:05:28;;;;;;;40.67;22.48;;;7.50;57.00;;;;;;5070355;28;20021;-70
2021/12/07 09:07:54;;;;;;;38.63;23.75;;;7.60;57.00;;;;;;5070030;28;20032;-65
2021/12/07 09:10:20;;;;;;;34.08;21.75;;;7.60;56.70;;;;;;5072384;28;20086;-63
2021/12/07 09:12:47;;;;;;;32.97;21.73;;;7.60;56.40;;;;;;5073548;28;20059;-63
2021/12/07 09:15:13;;;;;;;40.15;23.77;;;7.70;56.60;;;;;;5072446;28;20021;-67
2021/12/07 09:17:38;;;;;;;30.70;20.55;;;7.70;56.10;;;;;;5071519;28;20037;-66
2021/12/07 09:20:10;;;;;;;41.15;22.77;;;7.70;56.00;;;;;;5072406;28;20515;-68
2021/12/07 09:22:36;;;;;;;34.78;21.80;;;7.70;55.90;;;;;;5074125;28;20033;-69
2021/12/07 09:25:03;;;;;;;40.20;23.42;;;7.70;56.60;;;;;;5072519;28;20024;-68
2021/12/07 09:27:30;;;;;;;42.72;23.90;;;7.70;55.90;;;;;;5065479;28;20064;-64
2021/12/07 09:29:55;;;;;;;41.78;24.33;;;7.60;56.00;;;;;;5071860;28;20047;-66
2021/12/07 09:32:40;;;;;;;49.47;23.67;;;7.60;56.00;;;;;;5071430;28;20028;-66
2021/12/07 09:35:07;;;;;;;40.33;23.60;;;7.60;56.00;;;;;;5071906;28;20020;-66
2021/12/07 09:37:34;;;;;;;42.28;23.98;;;7.50;56.30;;;;;;5071999;28;20056;-64
2021/12/07 09:40:00;;;;;;;37.17;23.85;;;7.60;56.20;;;;;;5065682;28;20115;-64
2021/12/07 09:42:26;;;;;;;41.25;23.10;;;7.60;56.40;;;;;;5074150;28;20031;-62
2021/12/07 09:44:52;;;;;;;35.35;22.73;;;7.70;56.50;;;;;;5071437;28;20020;-64
2021/12/07 09:47:18;;;;;;;36.25;22.63;;;7.90;56.30;;;;;;5070753;28;20034;-70
2021/12/07 09:49:45;;;;;;;43.60;23.85;;;8.00;56.20;;;;;;5070900;28;20111;-69
2021/12/07 09:52:12;;;;;;;34.83;22.38;;;8.10;55.80;;;;;;5071880;28;20067;-66
2021/12/07 09:54:38;;;;;;;36.53;22.35;;;8.10;55.50;;;;;;5069892;28;20036;-65
2021/12/07 09:57:05;;;;;;;34.30;19.77;;;8.10;55.20;;;;;;5071355;28;20440;-68
2021/12/07 09:59:31;;;;;;;33.25;19.75;;;8.10;55.00;;;;;;5071933;28;20028;-62
2021/12/07 10:01:57;;;;;;;34.05;21.08;;;8.30;55.10;;;;;;5071230;28;20435;-66
2021/12/07 10:04:27;;;;;;;41.65;21.80;;;8.50;54.10;;;;;;5070924;28;20469;-64
2021/12/07 10:06:54;;;;;;;39.75;22.13;;;8.60;53.80;;;;;;5070555;28;20397;-68
2021/12/07 10:09:21;;;;;;;33.00;20.60;;;8.70;54.10;;;;;;5069429;28;20070;-69
2021/12/07 10:11:53;;;;;;;34.60;22.38;;;8.90;54.00;;;;;;5068803;28;20111;-66
2021/12/07 10:14:19;;;;;;;33.45;20.50;;;9.10;53.20;;;;;;5070377;28;20041;-62
2021/12/07 10:16:48;;;;;;;40.85;21.95;;;9.00;53.10;;;;;;5069885;28;20040;-63
2021/12/07 10:19:29;;;;;;;39.72;22.90;;;9.00;53.30;;;;;;5070842;28;20039;-67
2021/12/07 10:22:07;;;;;;;34.85;21.50;;;9.10;53.20;;;;;;5070757;28;20416;-69
2021/12/07 10:24:40;;;;;;;32.63;19.88;;;9.10;52.70;;;;;;5070281;28;20028;-66
2021/12/07 10:27:07;;;;;;;41.10;21.02;;;9.00;53.00;;;;;;5066820;28;20106;-67
2021/12/07 10:29:34;;;;;;;34.70;20.67;;;9.00;52.80;;;;;;5033271;28;20033;-69
2021/12/07 10:32:05;;;;;;;30.65;19.55;;;9.00;53.10;;;;;;5052385;28;20025;-68
2021/12/07 10:34:35;;;;;;;34.13;22.63;;;8.90;52.80;;;;;;5051177;28;20021;-67
2021/12/07 10:37:06;;;;;;;33.90;19.50;;;8.70;52.80;;;;;;5050564;28;20060;-65
2021/12/07 10:39:41;;;;;;;35.42;19.85;;;8.50;53.00;;;;;;5049696;28;20025;-69
2021/12/07 10:42:21;;;;;;;28.52;18.90;;;8.50;53.60;;;;;;5050276;28;20021;-70
2021/12/07 10:44:48;;;;;;;31.48;19.33;;;8.50;53.30;;;;;;5052053;28;20029;-62
2021/12/07 10:47:19;;;;;;;29.55;19.35;;;8.40;53.60;;;;;;5051110;28;20036;-68
2021/12/07 10:49:52;;;;;;;35.22;23.35;;;8.30;54.00;;;;;;5047225;28;20453;-64
2021/12/07 10:52:42;;;;;;;32.13;21.17;;;8.20;54.20;;;;;;5050871;28;20036;-63
2021/12/07 10:55:23;;;;;;;28.52;19.58;;;8.30;54.30;;;;;;5050673;28;20060;-62
2021/12/07 10:57:54;;;;;;;29.80;18.92;;;8.30;54.00;;;;;;5033513;28;20542;-69
2021/12/07 11:00:23;;;;;;;27.73;18.52;;;8.20;54.40;;;;;;5033538;28;20036;-62
2021/12/07 11:03:14;;;;;;;28.40;17.90;;;8.20;54.50;;;;;;5033973;28;20029;-65
2021/12/07 11:05:50;;;;;;;32.15;20.58;;;8.30;54.30;;;;;;5051683;28;20021;-69
2021/12/07 11:08:20;;;;;;;29.45;20.73;;;8.30;54.50;;;;;;5050780;28;20021;-68
2021/12/07 11:10:50;;;;;;;32.10;19.95;;;8.40;54.70;;;;;;5051519;28;20108;-63
2021/12/07 11:13:35;;;;;;;32.15;20.02;;;8.40;54.50;;;;;;5033157;28;20025;-64
2021/12/07 11:16:09;;;;;;;33.15;20.45;;;8.40;54.60;;;;;;5033707;28;20059;-66
2021/12/07 11:18:39;;;;;;;30.60;20.50;;;8.40;54.60;;;;;;5051336;28;20477;-65
2021/12/07 11:21:11;;;;;;;31.80;20.38;;;8.40;54.60;;;;;;5033820;28;20028;-69
2021/12/07 11:23:41;;;;;;;31.02;20.80;;;8.40;54.50;;;;;;5051932;28;20100;-72
2021/12/07 11:31:41;;;;;;;28.63;19.95;;;8.30;55.10;;;;;;5051102;28;20115;-63
2021/12/07 11:34:40;;;;;;;33.47;20.98;;;8.30;55.00;;;;;;5033587;28;20029;-63
2021/12/07 11:37:09;;;;;;;35.97;22.45;;;8.40;54.80;;;;;;5038222;28;20049;-63
2021/12/07 11:39:47;;;;;;;32.55;21.23;;;8.50;54.90;;;;;;5033544;28;20021;-64
2021/12/07 11:42:22;;;;;;;34.28;22.08;;;8.40;54.60;;;;;;5036001;28;20514;-67
2021/12/07 11:45:15;;;;;;;33.33;21.23;;;8.30;55.10;;;;;;5056413;28;20370;-68
2021/12/07 11:47:54;;;;;;;33.27;20.77;;;8.30;55.40;;;;;;5056397;28;20090;-62
2021/12/07 11:50:29;;;;;;;32.55;21.58;;;8.30;55.30;;;;;;5055226;28;20109;-72
2021/12/07 11:53:08;;;;;;;32.65;20.10;;;8.30;55.20;;;;;;5055510;28;20028;-68
2021/12/07 11:55:37;;;;;;;39.00;21.15;;;8.40;55.30;;;;;;5055236;28;20041;-66
2021/12/07 11:58:05;;;;;;;33.28;21.77;;;8.30;55.20;;;;;;5055298;28;20035;-77
2021/12/07 12:00:35;;;;;;;32.28;20.55;;;8.40;55.40;;;;;;5054523;28;20032;-71
2021/12/07 12:03:13;;;;;;;31.55;21.05;;;8.40;55.30;;;;;;5055038;28;20068;-73
2021/12/07 12:05:42;;;;;;;29.52;19.45;;;8.50;54.60;;;;;;5037349;28;20033;-67
2021/12/07 12:08:09;;;;;;;41.15;21.52;;;8.40;54.90;;;;;;5055072;28;20033;-73
2021/12/07 12:10:38;;;;;;;28.15;18.95;;;8.40;54.90;;;;;;5055044;28;20028;-70
2021/12/07 12:13:42;;;;;;;28.90;18.85;;;8.30;55.40;;;;;;5054697;28;20017;-67
2021/12/07 12:16:25;;;;;;;26.08;18.15;;;8.30;55.90;;;;;;5024842;28;20470;-66
2021/12/07 12:19:06;;;;;;;37.45;19.67;;;8.30;56.10;;;;;;5055187;28;20036;-71
2021/12/07 12:22:02;;;;;;;35.55;21.30;;;8.30;56.50;;;;;;5036673;28;20017;-75
2021/12/07 12:24:44;;;;;;;32.35;19.90;;;8.20;56.80;;;;;;4938311;29;20043;-70
2021/12/07 12:27:20;;;;;;;40.70;20.98;;;8.30;56.90;;;;;;4966118;28;20078;-66
2021/12/07 12:29:51;;;;;;;30.38;21.38;;;8.30;57.30;;;;;;4992602;28;20045;-67
2021/12/07 12:32:41;;;;;;;31.58;20.42;;;8.20;57.70;;;;;;4990886;28;20050;-74
2021/12/07 12:35:09;;;;;;;39.20;22.40;;;8.30;58.10;;;;;;4992297;28;20045;-62
2021/12/07 12:37:36;;;;;;;34.33;22.17;;;8.30;58.00;;;;;;4976178;28;20202;-73
2021/12/07 12:40:06;;;;;;;38.92;22.98;;;8.20;58.40;;;;;;4992394;28;20069;-70
2021/12/07 12:42:47;;;;;;;33.97;22.58;;;8.10;58.80;;;;;;4991684;28;20035;-71
2021/12/07 12:45:22;;;;;;;34.13;23.42;;;8.10;59.30;;;;;;4991173;28;20117;-65
2021/12/07 12:48:02;;;;;;;30.92;21.45;;;8.10;59.50;;;;;;4991930;28;20038;-72
2021/12/07 12:50:29;;;;;;;38.17;23.30;;;8.00;59.90;;;;;;4991563;28;20034;-65
2021/12/07 12:53:00;;;;;;;36.67;24.38;;;8.00;60.10;;;;;;4991547;28;20093;-68
2021/12/07 12:55:44;;;;;;;32.90;23.48;;;8.00;60.20;;;;;;4991409;28;20062;-73
2021/12/07 12:58:18;;;;;;;;;;;8.00;60.60;;;;;;4992287;28;20042;-68
2021/12/07 13:01:04;;;;;;;36.00;24.08;;;8.00;60.90;;;;;;5014234;28;19911;-66
2021/12/07 13:04:08;;;;;;;37.10;21.83;;;8.00;60.90;;;;;;5072640;28;20025;-62
2021/12/07 13:06:34;;;;;;;30.67;21.70;;;8.00;61.10;;;;;;5073072;28;20064;-72
2021/12/07 13:09:09;;;;;;;34.90;23.70;;;7.90;61.10;;;;;;5072290;28;20027;-69
2021/12/07 13:11:37;;;;;;;36.53;22.40;;;7.90;62.20;;;;;;5071660;28;20021;-64
2021/12/07 13:14:31;;;;;;;35.38;22.83;;;7.90;61.40;;;;;;5073794;28;20036;-67
2021/12/07 13:17:02;;;;;;;34.30;21.77;;;7.80;61.60;;;;;;5053165;28;20037;-69
2021/12/07 13:19:29;;;;;;;39.88;22.60;;;7.80;62.00;;;;;;5071859;28;20032;-69
2021/12/07 13:21:56;;;;;;;35.50;23.08;;;7.80;62.00;;;;;;5071869;28;20083;-64
2021/12/07 13:24:35;;;;;;;37.60;22.40;;;7.80;62.20;;;;;;5071553;28;20035;-62
2021/12/07 13:27:10;;;;;;;32.08;19.48;;;7.80;62.40;;;;;;5068405;28;20080;-64
2021/12/07 13:29:47;;;;;;;36.60;20.58;;;7.70;62.20;;;;;;5052914;28;20017;-68
2021/12/07 13:32:13;;;;;;;33.40;19.60;;;7.70;62.20;;;;;;5052360;28;20492;-69
2021/12/07 13:34:40;;;;;;;32.00;19.52;;;7.70;62.40;;;;;;5052713;28;20027;-69
2021/12/07 13:37:14;;;;;;;28.73;18.33;;;7.70;62.80;;;;;;5035260;28;20490;-68
2021/12/07 13:39:48;;;;;;;25.73;16.98;;;7.60;62.80;;;;;;5034824;28;20031;-73
2021/12/07 13:42:16;;;;;;;27.05;16.35;;;7.60;62.90;;;;;;5034829;28;20029;-76
2021/12/07 13:44:46;;;;;;;30.92;16.45;;;7.60;63.00;;;;;;5051806;28;20056;-67
2021/12/07 13:47:16;;;;;;;24.27;16.48;;;7.50;63.40;;;;;;5053585;28;20055;-65
2021/12/07 13:49:45;;;;;;;33.17;16.35;;;7.60;63.30;;;;;;5034759;28;20071;-68
2021/12/07 13:52:19;;;;;;;53.88;20.13;;;7.60;63.40;;;;;;5052368;28;20033;-70
2021/12/07 13:57:35;;;;;;;22.35;14.77;;;7.70;63.20;;;;;;5051697;28;20543;-68
2021/12/07 14:00:13;;;;;;;21.15;13.48;;;7.70;63.60;;;;;;5052034;28;20036;-67
2021/12/07 14:02:43;;;;;;;16.70;12.43;;;7.70;63.00;;;;;;5051312;28;20025;-69
2021/12/07 14:05:15;;;;;;;22.48;13.00;;;7.70;63.00;;;;;;5033932;28;20059;-63
2021/12/07 14:07:42;;;;;;;20.20;13.68;;;7.80;63.00;;;;;;5050848;28;20036;-70
2021/12/07 14:10:13;;;;;;;19.52;13.48;;;7.80;63.00;;;;;;5051137;28;20025;-65
2021/12/07 14:12:39;;;;;;;22.77;13.55;;;7.70;63.30;;;;;;5033485;28;20076;-66
2021/12/07 14:15:23;;;;;;;19.88;12.45;;;7.60;63.70;;;;;;5051466;28;20423;-65
2021/12/07 14:17:57;;;;;;;16.52;11.57;;;7.60;63.60;;;;;;5051524;28;20036;-65
2021/12/07 14:20:43;;;;;;;17.67;11.98;;;7.70;63.40;;;;;;5051758;28;20071;-64
2021/12/07 14:23:23;;;;;;;16.02;10.70;;;7.70;63.40;;;;;;5033394;28;20037;-65
2021/12/07 14:25:53;;;;;;;18.23;11.00;;;7.70;63.40;;;;;;5051926;28;20033;-68
2021/12/07 14:28:24;;;;;;;13.80;9.80;;;7.60;63.40;;;;;;5061131;28;20146;-63
2021/12/07 14:30:50;;;;;;;17.90;10.20;;;7.50;63.60;;;;;;5071339;28;20021;-67
2021/12/07 14:33:17;;;;;;;18.63;10.13;;;7.50;63.70;;;;;;5071781;28;20374;-64
2021/12/07 14:35:43;;;;;;;25.23;9.85;;;7.50;63.70;;;;;;5070844;28;20492;-68
2021/12/07 14:38:09;;;;;;;24.55;10.48;;;7.50;63.80;;;;;;5069972;28;20089;-65
2021/12/07 14:40:35;;;;;;;17.02;9.73;;;7.60;63.90;;;;;;5069769;28;20032;-67